createdAt,value
2023-04-18T00:01:58.999Z,17.15
2023-04-18T00:05:04.146Z,17.50
2023-04-18T00:08:08.792Z,15.93
2023-04-18T00:11:11.873Z,18.52
2023-04-18T00:14:17.081Z,18.02
2023-04-18T00:17:20.381Z,18.30
2023-04-18T00:20:26.384Z,19.00
2023-04-18T00:23:31.114Z,15.50
2023-04-18T00:26:34.290Z,14.18
2023-04-18T00:29:38.008Z,15.27
2023-04-18T00:32:41.159Z,14.15
2023-04-18T00:35:44.371Z,13.93
2023-04-18T00:38:48.921Z,15.40
2023-04-18T00:41:52.252Z,13.98
2023-04-18T00:44:55.517Z,16.77
2023-04-18T00:47:58.804Z,14.10
2023-04-18T00:51:02.140Z,16.17
2023-04-18T00:54:07.981Z,16.73
2023-04-18T00:57:11.753Z,15.07
2023-04-18T01:00:15.731Z,14.60
2023-04-18T01:03:19.764Z,16.58
2023-04-18T01:06:23.586Z,14.43
2023-04-18T01:09:28.683Z,15.35
2023-04-18T01:12:31.978Z,15.52
2023-04-18T01:15:36.858Z,14.88
2023-04-18T01:18:40.855Z,15.25
2023-04-18T01:21:45.474Z,16.85
2023-04-18T01:24:53.076Z,18.48
2023-04-18T01:27:58.698Z,17.05
2023-04-18T01:31:04.464Z,15.88
2023-04-18T01:34:08.128Z,14.57
2023-04-18T01:37:11.629Z,12.57
2023-04-18T01:40:17.952Z,13.48
2023-04-18T01:43:21.093Z,15.63
2023-04-18T01:46:24.322Z,14.57
2023-04-18T01:49:27.690Z,15.43
2023-04-18T01:52:31.503Z,13.95
2023-04-18T01:55:35.939Z,18.67
2023-04-18T01:58:39.253Z,15.68
2023-04-18T02:01:42.682Z,16.80
2023-04-18T02:04:45.867Z,16.02
2023-04-18T02:07:50.328Z,16.90
2023-04-18T02:10:55.247Z,19.20
2023-04-18T02:13:59.527Z,14.85
2023-04-18T02:17:02.907Z,15.88
2023-04-18T02:20:08.248Z,13.90
2023-04-18T02:23:11.766Z,18.05
2023-04-18T02:26:16.589Z,15.15
2023-04-18T02:29:19.734Z,15.65
2023-04-18T02:32:22.938Z,15.07
2023-04-18T02:35:27.055Z,16.67
2023-04-18T02:38:30.200Z,13.32
2023-04-18T02:41:37.480Z,17.65
2023-04-18T02:44:40.925Z,15.50
2023-04-18T02:47:54.417Z,16.02
2023-04-18T02:51:03.374Z,16.52
2023-04-18T02:54:08.137Z,17.35
2023-04-18T02:57:28.280Z,15.82
2023-04-18T03:00:55.291Z,17.08
2023-04-18T03:04:17.850Z,16.08
2023-04-18T03:07:30.745Z,15.45
2023-04-18T03:10:35.217Z,16.33
2023-04-18T03:13:39.921Z,18.25
2023-04-18T03:16:43.856Z,17.92
2023-04-18T03:19:50.865Z,18.60
2023-04-18T03:22:56.159Z,15.90
2023-04-18T03:26:02.172Z,15.93
2023-04-18T03:29:09.108Z,17.10
2023-04-18T03:34:56.024Z,15.05
2023-04-18T03:37:59.342Z,23.30
2023-04-18T03:41:08.644Z,18.45
2023-04-18T03:44:15.992Z,16.93
2023-04-18T03:47:19.533Z,18.48
2023-04-18T03:50:40.826Z,19.50
2023-04-18T03:53:46.495Z,15.98
2023-04-18T03:56:49.727Z,15.50
2023-04-18T03:59:53.140Z,20.88
2023-04-18T04:02:57.725Z,19.30
2023-04-18T04:06:03.145Z,19.08
2023-04-18T04:09:15.271Z,18.95
2023-04-18T04:12:18.674Z,23.05
2023-04-18T04:15:22.077Z,18.80
2023-04-18T04:18:31.842Z,18.40
2023-04-18T04:21:39.659Z,18.67
2023-04-18T04:24:46.834Z,18.98
2023-04-18T04:27:53.603Z,18.20
2023-04-18T04:30:59.263Z,20.20
2023-04-18T04:34:03.280Z,19.63
2023-04-18T04:37:09.031Z,20.33
2023-04-18T04:40:20.726Z,21.27
2023-04-18T04:43:41.193Z,22.60
2023-04-18T04:46:47.902Z,22.50
2023-04-18T04:49:56.698Z,23.25
2023-04-18T04:53:01.302Z,24.85
2023-04-18T04:56:05.992Z,21.42
2023-04-18T04:59:10.222Z,20.95
2023-04-18T05:02:18.011Z,22.25
2023-04-18T05:05:21.226Z,24.35
2023-04-18T05:08:26.183Z,23.90
2023-04-18T05:11:29.364Z,19.85
2023-04-18T05:14:32.504Z,21.67
2023-04-18T05:17:35.940Z,24.60
2023-04-18T05:20:39.142Z,26.35
2023-04-18T05:23:43.744Z,24.90
2023-04-18T05:26:46.842Z,21.08
2023-04-18T05:29:50.302Z,23.58
2023-04-18T05:32:53.529Z,25.52
2023-04-18T05:35:57.415Z,22.73
2023-04-18T05:39:02.155Z,25.45
2023-04-18T05:42:05.400Z,25.02
2023-04-18T05:45:09.709Z,28.15
2023-04-18T05:48:12.851Z,24.88
2023-04-18T05:51:15.978Z,25.92
2023-04-18T05:54:21.347Z,24.77
2023-04-18T05:57:32.073Z,25.73
2023-04-18T06:00:35.981Z,26.48
2023-04-18T06:03:42.265Z,26.75
2023-04-18T06:06:46.068Z,24.95
2023-04-18T06:09:50.571Z,24.60
2023-04-18T06:12:53.736Z,24.95
2023-04-18T06:15:56.901Z,24.50
2023-04-18T06:19:01.393Z,26.15
2023-04-18T06:22:04.769Z,25.70
2023-04-18T06:25:10.539Z,25.08
2023-04-18T06:28:13.907Z,28.20
2023-04-18T06:31:17.093Z,28.10
2023-04-18T06:34:20.292Z,26.02
2023-04-18T06:37:23.783Z,27.02
2023-04-18T06:40:35.284Z,27.80
2023-04-18T06:43:38.493Z,26.08
2023-04-18T06:46:41.914Z,23.77
2023-04-18T06:49:45.052Z,26.00
2023-04-18T06:52:50.297Z,25.67
2023-04-18T06:55:54.817Z,23.23
2023-04-18T06:58:58.195Z,26.45
2023-04-18T07:02:01.333Z,22.73
2023-04-18T07:05:04.731Z,20.42
2023-04-18T07:08:08.418Z,21.45
2023-04-18T07:11:13.613Z,22.73
2023-04-18T07:14:16.949Z,26.90
2023-04-18T07:17:20.752Z,21.58
2023-04-18T07:20:24.167Z,19.63
2023-04-18T07:23:27.324Z,21.48
2023-04-18T07:26:31.818Z,22.38
2023-04-18T07:29:34.914Z,23.13
2023-04-18T07:32:38.196Z,23.25
2023-04-18T07:35:41.570Z,20.20
2023-04-18T07:38:46.213Z,21.17
2023-04-18T07:41:53.489Z,17.05
2023-04-18T07:44:59.167Z,20.83
2023-04-18T07:48:02.742Z,17.75
2023-04-18T07:51:06.157Z,18.33
2023-04-18T07:54:11.008Z,16.63
2023-04-18T07:57:15.601Z,18.88
2023-04-18T08:00:19.936Z,18.45
2023-04-18T08:03:23.304Z,17.30
2023-04-18T08:06:26.991Z,19.45
2023-04-18T08:09:30.649Z,15.45
2023-04-18T08:12:36.491Z,15.60
2023-04-18T08:15:39.602Z,17.45
2023-04-18T08:18:42.864Z,17.63
2023-04-18T08:21:46.071Z,16.73
2023-04-18T08:25:03.281Z,18.73
2023-04-18T08:28:08.895Z,16.40
2023-04-18T08:31:13.763Z,16.23
2023-04-18T08:34:16.969Z,16.95
2023-04-18T08:37:20.108Z,16.38
2023-04-18T08:40:23.422Z,15.98
2023-04-18T08:43:30.128Z,20.23
2023-04-18T08:46:35.825Z,15.68
2023-04-18T08:49:39.852Z,15.95
2023-04-18T08:52:47.364Z,17.17
2023-04-18T08:55:54.965Z,16.52
2023-04-18T08:59:00.259Z,14.88
2023-04-18T09:02:05.481Z,15.30
2023-04-18T09:05:14.103Z,14.63
2023-04-18T09:08:24.707Z,16.08
2023-04-18T09:11:29.747Z,13.55
2023-04-18T09:14:36.393Z,13.23
2023-04-18T09:17:42.220Z,14.80
2023-04-18T09:20:47.494Z,13.48
2023-04-18T09:23:50.824Z,14.07
2023-04-18T09:26:55.799Z,11.85
2023-04-18T09:30:00.744Z,12.07
2023-04-18T09:34:59.740Z,13.50
2023-04-18T09:38:04.029Z,11.43
2023-04-18T09:41:11.653Z,11.23
2023-04-18T09:44:17.073Z,10.80
2023-04-18T09:47:20.819Z,12.57
2023-04-18T09:50:25.583Z,8.85
2023-04-18T09:53:30.136Z,10.88
2023-04-18T09:56:37.160Z,9.68
2023-04-18T09:59:47.583Z,12.13
2023-04-18T10:02:53.344Z,9.40
2023-04-18T10:05:58.072Z,8.50
2023-04-18T10:09:04.725Z,11.75
2023-04-18T10:12:08.529Z,9.75
2023-04-18T10:15:12.671Z,9.40
2023-04-18T10:18:17.007Z,9.38
2023-04-18T10:21:22.299Z,10.23
2023-04-18T10:24:47.948Z,10.88
2023-04-18T10:28:01.767Z,10.00
2023-04-18T10:31:05.627Z,9.10
2023-04-18T10:34:08.900Z,8.32
2023-04-18T10:37:13.864Z,9.25
2023-04-18T10:40:17.646Z,8.90
2023-04-18T10:43:21.073Z,7.75
2023-04-18T10:46:31.084Z,10.50
2023-04-18T10:49:37.549Z,8.15
2023-04-18T10:52:42.654Z,10.15
2023-04-18T10:55:55.412Z,10.30
2023-04-18T10:59:03.075Z,7.53
2023-04-18T11:02:15.098Z,7.88
2023-04-18T11:05:24.905Z,7.55
2023-04-18T11:08:30.079Z,8.40
2023-04-18T11:11:33.258Z,7.15
2023-04-18T11:14:43.034Z,6.22
2023-04-18T11:17:46.303Z,8.48
2023-04-18T11:20:52.103Z,6.03
2023-04-18T11:23:57.038Z,6.78
2023-04-18T11:27:00.675Z,7.07
2023-04-18T11:30:04.023Z,6.75
2023-04-18T11:33:08.803Z,7.43
2023-04-18T11:36:13.772Z,7.35
2023-04-18T11:39:18.349Z,6.43
2023-04-18T11:42:21.888Z,7.40
2023-04-18T11:45:24.981Z,6.10
2023-04-18T11:48:36.186Z,6.15
2023-04-18T11:51:39.574Z,7.68
2023-04-18T11:54:45.933Z,5.75
2023-04-18T11:57:52.864Z,8.40
2023-04-18T12:00:56.107Z,5.75
2023-04-18T12:04:04.144Z,5.72
2023-04-18T12:07:07.718Z,7.43
2023-04-18T12:10:26.929Z,10.70
2023-04-18T12:13:33.031Z,8.23
2023-04-18T12:16:36.422Z,6.32
2023-04-18T12:19:39.778Z,7.13
2023-04-18T12:22:46.059Z,7.35
2023-04-18T12:25:59.780Z,7.75
2023-04-18T12:29:03.077Z,7.97
2023-04-18T12:32:06.610Z,9.07
2023-04-18T12:35:10.705Z,6.57
2023-04-18T12:38:14.127Z,8.05
2023-04-18T12:41:18.654Z,8.70
2023-04-18T12:44:22.639Z,10.85
2023-04-18T12:47:25.800Z,9.45
2023-04-18T12:50:28.954Z,10.02
2023-04-18T12:53:32.091Z,10.25
2023-04-18T12:56:36.624Z,9.18
2023-04-18T12:59:39.786Z,11.05
2023-04-18T13:02:44.351Z,11.05
2023-04-18T13:05:47.616Z,9.48
2023-04-18T13:08:50.892Z,9.85
2023-04-18T13:11:55.394Z,16.20
2023-04-18T13:14:58.606Z,13.63
2023-04-18T13:18:04.843Z,11.90
2023-04-18T13:21:08.419Z,10.68
2023-04-18T13:24:11.933Z,10.05
2023-04-18T13:27:16.499Z,9.38
2023-04-18T13:30:20.046Z,7.70
2023-04-18T13:33:23.203Z,8.75
2023-04-18T13:36:26.929Z,7.70
2023-04-18T13:39:33.818Z,11.25
2023-04-18T13:42:39.495Z,8.88
2023-04-18T13:45:42.783Z,9.05
2023-04-18T13:48:45.965Z,10.55
2023-04-18T13:51:50.453Z,8.77
2023-04-18T13:54:53.816Z,9.32
2023-04-18T13:57:58.450Z,8.38
2023-04-18T14:01:01.733Z,9.18
2023-04-18T14:04:05.291Z,8.85
2023-04-18T14:07:09.159Z,7.93
2023-04-18T14:10:12.566Z,6.10
2023-04-18T14:13:17.124Z,8.25
2023-04-18T14:16:20.345Z,6.82
2023-04-18T14:19:23.837Z,6.57
2023-04-18T14:22:26.957Z,10.13
2023-04-18T14:25:34.701Z,7.30
2023-04-18T14:28:39.190Z,8.15
2023-04-18T14:31:42.653Z,8.35
2023-04-18T14:34:45.932Z,12.07
2023-04-18T14:37:49.834Z,12.02
2023-04-18T14:40:52.991Z,12.95
2023-04-18T14:43:57.634Z,9.75
2023-04-18T14:47:01.454Z,11.93
2023-04-18T14:50:05.084Z,9.75
2023-04-18T14:53:08.801Z,10.27
2023-04-18T14:56:11.996Z,10.30
2023-04-18T14:59:17.190Z,11.48
2023-04-18T15:02:20.633Z,10.80
2023-04-18T15:05:24.512Z,10.95
2023-04-18T15:08:27.669Z,11.40
2023-04-18T15:11:30.825Z,11.85
2023-04-18T15:14:35.921Z,9.45
2023-04-18T15:17:39.177Z,9.50
2023-04-18T15:20:42.356Z,12.90
2023-04-18T15:23:45.547Z,12.02
2023-04-18T15:26:48.910Z,10.35
2023-04-18T15:29:53.483Z,12.05
2023-04-18T15:34:56.035Z,9.93
2023-04-18T15:37:59.234Z,8.80
2023-04-18T15:41:02.560Z,12.80
2023-04-18T15:44:07.837Z,13.63
2023-04-18T15:47:11.383Z,11.73
2023-04-18T15:50:16.865Z,13.63
2023-04-18T15:53:20.457Z,14.13
2023-04-18T15:56:23.635Z,15.07
2023-04-18T15:59:26.803Z,16.70
2023-04-18T16:02:30.074Z,10.75
2023-04-18T16:05:34.628Z,10.77
2023-04-18T16:08:38.288Z,10.68
2023-04-18T16:11:41.477Z,14.43
2023-04-18T16:14:44.572Z,11.77
2023-04-18T16:17:47.854Z,12.55
2023-04-18T16:20:52.323Z,12.40
2023-04-18T16:23:55.472Z,11.50
2023-04-18T16:26:58.631Z,11.55
2023-04-18T16:30:02.191Z,18.10
2023-04-18T16:33:06.768Z,13.32
2023-04-18T16:36:11.275Z,14.20
2023-04-18T16:39:15.753Z,12.98
2023-04-18T16:42:19.183Z,13.85
2023-04-18T16:45:22.286Z,15.30
2023-04-18T16:48:25.725Z,14.88
2023-04-18T16:51:30.419Z,15.90
2023-04-18T16:54:33.504Z,14.70
2023-04-18T16:57:36.665Z,12.50
2023-04-18T17:00:39.884Z,13.02
2023-04-18T17:03:43.197Z,15.13
2023-04-18T17:06:48.843Z,11.75
2023-04-18T17:09:53.048Z,13.80
2023-04-18T17:12:58.549Z,14.60
2023-04-18T17:16:01.919Z,15.18
2023-04-18T17:19:05.598Z,13.88
2023-04-18T17:22:10.204Z,15.98
2023-04-18T17:25:13.488Z,15.27
2023-04-18T17:28:16.871Z,14.18
2023-04-18T17:31:22.202Z,14.20
2023-04-18T17:34:25.557Z,14.38
2023-04-18T17:37:30.129Z,15.13
2023-04-18T17:40:33.468Z,14.07
2023-04-18T17:43:36.636Z,14.85
2023-04-18T17:46:39.832Z,15.32
2023-04-18T17:49:43.014Z,16.00
2023-04-18T17:52:47.630Z,14.93
2023-04-18T17:55:52.109Z,17.27
2023-04-18T17:58:56.781Z,12.77
2023-04-18T18:02:00.047Z,12.98
2023-04-18T18:05:03.472Z,16.52
2023-04-18T18:08:08.157Z,16.02
2023-04-18T18:11:11.612Z,18.63
2023-04-18T18:14:14.789Z,16.17
2023-04-18T18:17:17.948Z,18.48
2023-04-18T18:20:21.162Z,17.35
2023-04-18T18:23:25.699Z,18.40
2023-04-18T18:26:28.817Z,16.60
2023-04-18T18:29:32.217Z,19.13
2023-04-18T18:32:35.449Z,21.10
2023-04-18T18:35:38.629Z,14.90
2023-04-18T18:38:43.471Z,18.38
2023-04-18T18:41:46.597Z,14.38
2023-04-18T18:44:49.892Z,14.25
2023-04-18T18:47:53.179Z,15.82
2023-04-18T18:50:57.199Z,13.73
2023-04-18T18:54:01.838Z,16.60
2023-04-18T18:57:05.192Z,15.45
2023-04-18T19:00:11.961Z,15.23
2023-04-18T19:03:18.327Z,15.25
2023-04-18T19:06:21.624Z,14.98
2023-04-18T19:09:28.544Z,15.63
2023-04-18T19:12:31.958Z,16.40
2023-04-18T19:15:35.075Z,15.30
2023-04-18T19:18:38.482Z,14.70
2023-04-18T19:21:45.739Z,16.02
2023-04-18T19:24:50.311Z,14.97
2023-04-18T19:27:53.541Z,14.00
2023-04-18T19:30:56.712Z,17.35
2023-04-18T19:33:59.929Z,16.25
2023-04-18T19:37:03.576Z,14.23
2023-04-18T19:40:09.581Z,14.88
2023-04-18T19:43:12.818Z,14.57
2023-04-18T19:46:16.055Z,14.35
2023-04-18T19:49:19.301Z,13.52
2023-04-18T19:52:22.523Z,16.75
2023-04-18T19:55:27.260Z,13.38
2023-04-18T19:58:37.894Z,16.45
2023-04-18T20:01:41.116Z,17.95
2023-04-18T20:04:44.910Z,18.27
2023-04-18T20:07:48.234Z,16.13
2023-04-18T20:10:52.842Z,16.00
2023-04-18T20:13:56.549Z,17.85
2023-04-18T20:16:59.689Z,18.55
2023-04-18T20:20:03.089Z,16.45
2023-04-18T20:23:06.365Z,18.67
2023-04-18T20:26:10.851Z,18.70
2023-04-18T20:29:14.201Z,21.10
2023-04-18T20:32:17.574Z,17.70
2023-04-18T20:35:20.865Z,18.15
2023-04-18T20:38:26.016Z,19.65
2023-04-18T20:41:32.383Z,17.50
2023-04-18T20:44:36.005Z,17.27
2023-04-18T20:47:41.072Z,16.00
2023-04-18T20:50:50.741Z,15.18
2023-04-18T20:53:53.977Z,15.52
2023-04-18T20:56:58.488Z,17.48
2023-04-18T21:00:01.751Z,15.05
2023-04-18T21:03:05.182Z,17.27
2023-04-18T21:06:08.570Z,20.10
2023-04-18T21:09:11.808Z,16.10
2023-04-18T21:12:16.581Z,14.57
2023-04-18T21:15:19.694Z,16.27
2023-04-18T21:18:22.852Z,14.32
2023-04-18T21:21:26.169Z,17.65
2023-04-18T21:24:29.285Z,17.10
2023-04-18T21:27:33.779Z,18.13
2023-04-18T21:30:36.880Z,15.85
2023-04-18T21:34:56.280Z,18.33
2023-04-18T21:37:59.505Z,16.60
2023-04-18T21:41:02.641Z,16.17
2023-04-18T21:44:06.190Z,14.18
2023-04-18T21:47:09.358Z,14.85
2023-04-18T21:50:14.328Z,15.15
2023-04-18T21:53:17.432Z,15.15
2023-04-18T21:56:21.140Z,14.60
2023-04-18T21:59:24.609Z,16.27
2023-04-18T22:02:28.616Z,13.35
2023-04-18T22:05:33.496Z,15.48
2023-04-18T22:08:36.902Z,13.57
2023-04-18T22:11:40.115Z,16.42
2023-04-18T22:14:48.102Z,14.18
2023-04-18T22:20:55.441Z,16.27
2023-04-18T22:23:58.672Z,13.98
2023-04-18T22:27:02.721Z,13.07
2023-04-18T22:30:07.087Z,14.82
2023-04-18T22:33:10.277Z,12.93
2023-04-18T22:36:14.770Z,12.15
2023-04-18T22:39:18.082Z,13.27
2023-04-18T22:42:21.243Z,12.02
2023-04-18T22:45:24.480Z,12.88
2023-04-18T22:48:27.601Z,11.70
2023-04-18T22:51:32.524Z,13.23
2023-04-18T22:54:39.343Z,12.38
2023-04-18T22:57:42.735Z,13.15
2023-04-18T23:00:45.903Z,13.63
2023-04-18T23:03:49.243Z,10.77
2023-04-18T23:06:54.031Z,13.63
2023-04-18T23:09:57.245Z,12.95
2023-04-18T23:13:00.481Z,12.60
2023-04-18T23:16:03.902Z,11.23
2023-04-18T23:19:07.083Z,12.68
2023-04-18T23:22:11.630Z,12.25
2023-04-18T23:25:14.868Z,12.35
2023-04-18T23:28:18.053Z,12.13
2023-04-18T23:31:21.375Z,16.77
2023-04-18T23:34:24.672Z,13.70
2023-04-18T23:37:29.178Z,14.40
2023-04-18T23:40:34.304Z,12.02
2023-04-18T23:43:37.442Z,15.80
2023-04-18T23:46:40.652Z,13.35
2023-04-18T23:49:43.795Z,15.00
2023-04-18T23:52:48.271Z,12.45
2023-04-18T23:55:51.996Z,13.30
2023-04-18T23:58:55.146Z,15.23
